Time;durP1;ratioP1;P1;durP2;ratioP2;P2;SDS_P1;SDS_P2;PMS_P1;PMS_P2;Temp;Humidity;BMP_temperature;BMP_pressure;BME280_temperature;BME280_humidity;BME280_pressure;Samples;Min_cycle;Max_cycle;Signal;HPM_P1;HPM_P2
2024/01/12 00:01:15;;;;;;;110.10;36.87;;;-4.70;99.90;;;;;;5049428;28;20056;-84
2024/01/12 00:03:40;;;;;;;102.30;35.10;;;-4.70;99.90;;;;;;5049122;28;20029;-84
2024/01/12 00:06:06;;;;;;;107.97;35.40;;;-4.70;99.90;;;;;;5049488;28;20028;-84
2024/01/12 00:08:32;;;;;;;106.37;36.57;;;-4.70;99.90;;;;;;5051737;28;20068;-84
2024/01/12 00:10:58;;;;;;;99.40;37.07;;;-4.60;99.90;;;;;;5050230;28;20025;-84
2024/01/12 00:13:24;;;;;;;110.87;36.90;;;-4.60;99.90;;;;;;5056422;28;20033;-83
2024/01/12 00:15:50;;;;;;;105.57;36.43;;;-4.60;99.90;;;;;;5054054;28;20029;-84
2024/01/12 00:18:16;;;;;;;99.23;36.77;;;-4.60;99.90;;;;;;5048672;28;20201;-84
2024/01/12 00:20:43;;;;;;;100.23;34.63;;;-4.60;99.90;;;;;;5048468;28;20203;-84
2024/01/12 00:23:11;;;;;;;100.77;35.23;;;-4.50;99.90;;;;;;5047469;28;20159;-84
2024/01/12 00:25:37;;;;;;;97.70;35.93;;;-4.50;99.90;;;;;;5048165;28;20063;-84
2024/01/12 00:28:03;;;;;;;99.37;35.93;;;-4.50;99.90;;;;;;5047458;28;20075;-84
2024/01/12 00:30:29;;;;;;;100.83;35.80;;;-4.50;99.90;;;;;;5047556;28;20045;-84
2024/01/12 00:32:54;;;;;;;106.00;38.37;;;-4.50;99.90;;;;;;5047438;28;20052;-83
2024/01/12 00:35:20;;;;;;;100.47;34.63;;;-4.50;99.90;;;;;;5047576;28;20039;-84
2024/01/12 00:37:48;;;;;;;104.37;38.27;;;-4.40;99.90;;;;;;5047083;28;20033;-84
2024/01/12 00:40:14;;;;;;;101.10;36.53;;;-4.40;99.90;;;;;;5046270;28;20029;-84
2024/01/12 00:42:39;;;;;;;105.23;34.43;;;-4.40;99.90;;;;;;5046933;28;20025;-84
2024/01/12 00:45:05;;;;;;;100.00;34.33;;;-4.40;99.90;;;;;;5047021;28;20097;-83
2024/01/12 00:47:31;;;;;;;115.07;37.10;;;-4.40;99.90;;;;;;5045388;28;20049;-84
2024/01/12 00:49:57;;;;;;;105.30;36.80;;;-4.40;99.90;;;;;;5047134;28;20056;-84
2024/01/12 00:52:22;;;;;;;112.87;37.00;;;-4.40;99.90;;;;;;5048848;28;20025;-84
2024/01/12 00:54:47;;;;;;;109.17;38.53;;;-4.30;99.90;;;;;;5045582;28;20446;-84
2024/01/12 00:57:13;;;;;;;104.97;35.63;;;-4.30;99.90;;;;;;5048094;28;20028;-84
2024/01/12 00:59:39;;;;;;;97.87;34.67;;;-4.30;99.90;;;;;;5048605;28;20106;-84
2024/01/12 01:02:04;;;;;;;101.93;34.20;;;-4.30;99.90;;;;;;5047790;28;20036;-84
2024/01/12 01:04:30;;;;;;;104.03;35.23;;;-4.30;99.90;;;;;;5046421;28;20036;-84
2024/01/12 01:06:55;;;;;;;97.90;34.10;;;-4.30;99.90;;;;;;5050054;28;20059;-84
2024/01/12 01:09:21;;;;;;;92.50;32.20;;;-4.20;99.90;;;;;;5050385;28;20029;-83
2024/01/12 01:11:48;;;;;;;93.27;32.93;;;-4.20;99.90;;;;;;5049899;28;20025;-83
2024/01/12 01:14:13;;;;;;;91.00;32.17;;;-4.10;99.90;;;;;;5051273;28;20033;-83
2024/01/12 01:16:39;;;;;;;98.30;33.77;;;-4.10;99.90;;;;;;5049727;28;20037;-82
2024/01/12 01:19:04;;;;;;;91.23;33.67;;;-4.10;99.90;;;;;;5050006;28;20067;-83
2024/01/12 01:21:30;;;;;;;89.37;33.00;;;-4.10;99.90;;;;;;5051360;28;20083;-83
2024/01/12 01:23:56;;;;;;;93.40;33.73;;;-4.00;99.90;;;;;;5051039;28;20043;-83
2024/01/12 01:26:22;;;;;;;90.00;32.57;;;-4.00;99.90;;;;;;5049959;28;20131;-84
2024/01/12 01:28:48;;;;;;;80.03;29.80;;;-4.00;99.90;;;;;;5050121;28;20033;-84
2024/01/12 01:31:14;;;;;;;88.27;31.73;;;-4.00;99.90;;;;;;5049616;28;20044;-83
2024/01/12 01:33:39;;;;;;;89.40;31.20;;;-3.90;99.90;;;;;;5049543;28;20029;-83
2024/01/12 01:36:06;;;;;;;88.00;31.83;;;-3.90;99.90;;;;;;5051315;28;20029;-83
2024/01/12 01:38:31;;;;;;;84.67;31.73;;;-3.90;99.90;;;;;;5050104;28;20097;-83
2024/01/12 01:40:57;;;;;;;92.97;34.37;;;-4.00;99.90;;;;;;5049945;28;20092;-83
2024/01/12 01:43:22;;;;;;;95.33;34.23;;;-4.00;99.90;;;;;;5050479;28;20130;-83
2024/01/12 01:45:48;;;;;;;91.60;33.37;;;-4.00;99.90;;;;;;5049219;28;20115;-83
2024/01/12 01:48:14;;;;;;;92.77;33.47;;;-4.00;99.90;;;;;;5049377;28;20032;-83
2024/01/12 01:50:40;;;;;;;97.00;35.00;;;-4.00;99.90;;;;;;5048420;28;20029;-83
2024/01/12 01:53:06;;;;;;;91.73;32.73;;;-4.00;99.90;;;;;;5050259;28;20120;-83
2024/01/12 01:55:32;;;;;;;91.20;32.80;;;-4.00;99.90;;;;;;5049174;28;21475;-83
2024/01/12 01:57:59;;;;;;;92.40;34.33;;;-4.00;99.90;;;;;;5050413;28;20021;-83
2024/01/12 02:00:25;;;;;;;96.97;33.77;;;-4.00;99.90;;;;;;5051133;28;20084;-83
2024/01/12 02:02:51;;;;;;;97.10;33.67;;;-4.00;99.90;;;;;;5049788;28;20118;-83
2024/01/12 02:05:17;;;;;;;105.60;36.70;;;-4.00;99.90;;;;;;5048413;28;20029;-83
2024/01/12 02:07:43;;;;;;;93.90;34.73;;;-4.00;99.90;;;;;;5048462;28;20060;-83
2024/01/12 02:10:09;;;;;;;95.10;35.67;;;-4.00;99.90;;;;;;5059015;28;20029;-83
2024/01/12 02:12:35;;;;;;;99.13;34.13;;;-4.00;99.90;;;;;;5055078;28;20033;-84
2024/01/12 02:15:08;;;;;;;93.63;34.33;;;-4.00;99.90;;;;;;5048134;28;20029;-84
2024/01/12 02:17:35;;;;;;;96.20;34.53;;;-4.00;99.90;;;;;;5048116;28;20103;-84
2024/01/12 02:20:01;;;;;;;97.27;35.07;;;-4.00;99.90;;;;;;5047916;28;20453;-83
2024/01/12 02:22:27;;;;;;;90.23;33.47;;;-4.00;99.90;;;;;;5046990;28;20029;-83
2024/01/12 02:24:54;;;;;;;104.07;36.17;;;-3.90;99.90;;;;;;5047445;28;20029;-84
2024/01/12 02:27:20;;;;;;;98.87;36.87;;;-3.90;99.90;;;;;;5045012;28;20028;-84
2024/01/12 02:29:46;;;;;;;92.57;33.97;;;-3.90;99.90;;;;;;5049316;28;20078;-84
2024/01/12 02:32:11;;;;;;;97.10;36.20;;;-3.90;99.90;;;;;;5047894;28;20028;-83
2024/01/12 02:34:37;;;;;;;87.57;32.10;;;-3.90;99.90;;;;;;5046856;28;20146;-83
2024/01/12 02:37:03;;;;;;;79.70;30.33;;;-3.90;99.90;;;;;;5047738;28;20025;-84
2024/01/12 02:39:29;;;;;;;68.63;29.10;;;-3.90;99.90;;;;;;5048116;28;20039;-83
2024/01/12 02:41:57;;;;;;;69.03;27.37;;;-3.90;99.90;;;;;;5049252;28;20037;-83
2024/01/12 02:44:23;;;;;;;68.63;27.43;;;-3.90;99.90;;;;;;5047628;28;20063;-84
2024/01/12 02:46:49;;;;;;;65.67;26.83;;;-3.90;99.90;;;;;;5047760;28;20057;-83
2024/01/12 02:49:15;;;;;;;67.67;28.40;;;-4.00;99.90;;;;;;5047439;28;20515;-84
2024/01/12 02:51:41;;;;;;;68.13;27.53;;;-4.00;99.90;;;;;;5048010;28;20068;-84
2024/01/12 02:54:07;;;;;;;62.77;25.97;;;-4.00;99.90;;;;;;5047012;28;20037;-83
2024/01/12 02:56:32;;;;;;;68.97;27.17;;;-4.00;99.90;;;;;;5047436;28;20685;-85
2024/01/12 02:58:58;;;;;;;62.03;26.37;;;-4.10;99.90;;;;;;5045130;28;20040;-84
2024/01/12 03:01:24;;;;;;;67.97;28.30;;;-4.10;99.90;;;;;;5045957;28;20043;-84
2024/01/12 03:03:49;;;;;;;62.70;27.07;;;-4.10;99.90;;;;;;5045935;28;20234;-84
2024/01/12 03:06:15;;;;;;;62.30;26.30;;;-4.10;99.90;;;;;;5046459;28;20025;-83
2024/01/12 03:08:40;;;;;;;66.53;28.00;;;-4.10;99.90;;;;;;5046504;28;20029;-84
2024/01/12 03:11:06;;;;;;;60.93;24.53;;;-4.20;99.90;;;;;;5046182;28;20060;-83
2024/01/12 03:13:33;;;;;;;64.57;25.33;;;-4.20;99.90;;;;;;5046935;28;20088;-84
2024/01/12 03:15:59;;;;;;;64.83;24.93;;;-4.20;99.90;;;;;;5046544;28;20033;-84
2024/01/12 03:18:26;;;;;;;65.43;25.23;;;-4.20;99.90;;;;;;5046405;28;20822;-84
2024/01/12 03:20:52;;;;;;;61.93;25.83;;;-4.20;99.90;;;;;;5045728;28;20025;-84
2024/01/12 03:23:17;;;;;;;71.10;28.27;;;-4.20;99.90;;;;;;5045347;28;20054;-84
2024/01/12 03:25:43;;;;;;;66.90;26.73;;;-4.30;99.90;;;;;;5044999;28;20025;-84
2024/01/12 03:28:08;;;;;;;71.17;27.03;;;-4.30;99.90;;;;;;5045892;28;20029;-84
2024/01/12 03:30:34;;;;;;;66.53;26.77;;;-4.30;99.90;;;;;;5045930;28;20016;-84
2024/01/12 03:33:00;;;;;;;65.53;26.50;;;-4.30;99.90;;;;;;5046052;28;20084;-84
2024/01/12 03:35:26;;;;;;;64.53;24.80;;;-4.30;99.90;;;;;;5045452;28;20048;-84
2024/01/12 03:37:51;;;;;;;67.77;28.17;;;-4.20;99.90;;;;;;5045331;28;20231;-84
2024/01/12 03:40:17;;;;;;;69.93;27.63;;;-4.30;99.90;;;;;;5045832;28;20028;-84
2024/01/12 03:42:42;;;;;;;68.70;27.87;;;-4.30;99.90;;;;;;5045691;28;20035;-84
2024/01/12 03:45:09;;;;;;;66.23;27.13;;;-4.30;99.90;;;;;;5043837;28;20052;-84
2024/01/12 03:47:34;;;;;;;65.07;26.17;;;-4.30;99.90;;;;;;5044459;28;20037;-84
2024/01/12 03:50:00;;;;;;;66.53;26.83;;;-4.20;99.90;;;;;;5045108;28;20036;-84
2024/01/12 03:52:25;;;;;;;65.20;26.47;;;-4.20;99.90;;;;;;5045295;28;20283;-83
2024/01/12 03:54:51;;;;;;;66.90;26.90;;;-4.20;99.90;;;;;;5043790;28;20041;-84
2024/01/12 03:57:16;;;;;;;64.70;26.73;;;-4.20;99.90;;;;;;5045535;28;20032;-84
2024/01/12 03:59:42;;;;;;;63.80;25.60;;;-4.20;99.90;;;;;;5048549;28;20036;-83
2024/01/12 04:02:07;;;;;;;63.23;26.10;;;-4.20;99.90;;;;;;5048630;28;20028;-84
2024/01/12 04:04:33;;;;;;;66.80;26.47;;;-4.30;99.90;;;;;;5047579;28;20593;-84
2024/01/12 04:06:59;;;;;;;61.73;26.40;;;-4.30;99.90;;;;;;5053967;28;20037;-84
2024/01/12 04:09:24;;;;;;;64.20;26.23;;;-4.30;99.90;;;;;;5055966;28;20148;-84
2024/01/12 04:11:50;;;;;;;58.47;25.53;;;-4.30;99.90;;;;;;5044956;28;20033;-84
2024/01/12 04:14:15;;;;;;;65.13;25.33;;;-4.30;99.90;;;;;;5045165;28;20025;-84
2024/01/12 04:16:41;;;;;;;61.17;24.07;;;-4.30;99.90;;;;;;5044065;28;20511;-84
2024/01/12 04:19:06;;;;;;;59.90;25.73;;;-4.30;99.90;;;;;;5044308;28;20031;-84
2024/01/12 04:21:32;;;;;;;65.00;26.03;;;-4.30;99.90;;;;;;5045048;28;20519;-84
2024/01/12 04:23:57;;;;;;;63.20;25.50;;;-4.30;99.90;;;;;;5043974;28;20076;-84
2024/01/12 04:26:23;;;;;;;61.00;25.93;;;-4.30;99.90;;;;;;5045719;28;20089;-83
2024/01/12 04:28:48;;;;;;;59.80;25.47;;;-4.30;99.90;;;;;;5047887;28;20029;-84
2024/01/12 04:31:14;;;;;;;61.20;25.50;;;-4.30;99.90;;;;;;5045757;28;20048;-84
2024/01/12 04:33:40;;;;;;;58.53;25.63;;;-4.30;99.90;;;;;;5045169;28;20033;-84
2024/01/12 04:36:06;;;;;;;59.13;25.00;;;-4.40;99.90;;;;;;5044920;28;20025;-84
2024/01/12 04:38:32;;;;;;;57.37;25.73;;;-4.30;99.90;;;;;;5044338;28;20037;-84
2024/01/12 04:40:58;;;;;;;58.60;24.67;;;-4.40;99.90;;;;;;5048102;28;20051;-84
2024/01/12 04:43:23;;;;;;;56.63;24.30;;;-4.30;99.90;;;;;;5049600;28;20484;-84
2024/01/12 04:45:49;;;;;;;63.23;25.43;;;-4.30;99.90;;;;;;5048727;28;20037;-84
2024/01/12 04:48:14;;;;;;;71.50;26.60;;;-4.30;99.90;;;;;;5048987;28;20045;-84
2024/01/12 04:50:40;;;;;;;57.80;24.10;;;-4.30;99.90;;;;;;5050385;28;20031;-83
2024/01/12 04:53:05;;;;;;;62.13;25.60;;;-4.30;99.90;;;;;;5050397;28;20040;-84
2024/01/12 04:55:31;;;;;;;60.67;25.00;;;-4.30;99.90;;;;;;5047463;28;20041;-84
2024/01/12 04:57:57;;;;;;;61.17;25.63;;;-4.20;99.90;;;;;;5049084;28;20158;-83
2024/01/12 05:00:22;;;;;;;57.27;23.07;;;-4.20;99.90;;;;;;5050016;28;20788;-84
2024/01/12 05:02:48;;;;;;;62.70;26.03;;;-4.20;99.90;;;;;;5051095;28;20028;-84
2024/01/12 05:05:14;;;;;;;59.80;24.63;;;-4.20;99.90;;;;;;5049876;28;20484;-85
2024/01/12 05:07:40;;;;;;;64.23;26.33;;;-4.20;99.90;;;;;;5049386;28;20021;-84
2024/01/12 05:10:06;;;;;;;59.33;25.33;;;-4.20;99.90;;;;;;5048174;28;20040;-85
2024/01/12 05:12:32;;;;;;;56.43;24.97;;;-4.20;99.90;;;;;;5048472;28;20017;-83
2024/01/12 05:14:58;;;;;;;60.30;25.83;;;-4.20;99.90;;;;;;5048091;28;20514;-84
2024/01/12 05:17:24;;;;;;;57.73;25.20;;;-4.20;99.90;;;;;;5049342;28;20060;-84
2024/01/12 05:19:49;;;;;;;60.63;25.03;;;-4.20;99.90;;;;;;5049583;28;20041;-84
2024/01/12 05:22:15;;;;;;;61.27;24.97;;;-4.20;99.90;;;;;;5048633;28;20032;-85
2024/01/12 05:24:40;;;;;;;60.90;25.20;;;-4.20;99.90;;;;;;5048890;28;20033;-84
2024/01/12 05:27:07;;;;;;;58.40;24.70;;;-4.30;99.90;;;;;;5048233;28;20040;-85
2024/01/12 05:29:33;;;;;;;59.70;24.87;;;-4.30;99.90;;;;;;5047307;28;20035;-84
2024/01/12 05:31:59;;;;;;;60.57;25.30;;;-4.30;99.90;;;;;;5048646;28;20052;-84
2024/01/12 05:34:25;;;;;;;57.10;24.30;;;-4.30;99.90;;;;;;5048948;28;20119;-85
2024/01/12 05:36:50;;;;;;;65.23;28.00;;;-4.40;99.90;;;;;;5048721;28;20108;-84
2024/01/12 05:39:16;;;;;;;62.90;27.37;;;-4.40;99.90;;;;;;5048846;28;20082;-84
2024/01/12 05:41:41;;;;;;;56.30;24.50;;;-4.40;99.90;;;;;;5047909;28;20025;-84
2024/01/12 05:44:08;;;;;;;59.70;24.03;;;-4.50;99.90;;;;;;5049465;28;20070;-84
2024/01/12 05:46:33;;;;;;;60.00;23.20;;;-4.50;99.90;;;;;;5048247;28;20025;-84
2024/01/12 05:49:03;;;;;;;60.37;24.47;;;-4.50;99.90;;;;;;5048913;28;21456;-84
2024/01/12 05:51:29;;;;;;;58.70;25.53;;;-4.50;99.90;;;;;;5048885;28;20064;-84
2024/01/12 05:53:55;;;;;;;59.33;23.90;;;-4.60;99.90;;;;;;5048859;28;20061;-85
2024/01/12 05:56:20;;;;;;;56.97;23.10;;;-4.60;99.90;;;;;;5044207;28;20040;-86
2024/01/12 05:58:46;;;;;;;56.40;25.33;;;-4.60;99.90;;;;;;5043743;28;20747;-84
2024/01/12 06:01:11;;;;;;;56.60;25.40;;;-4.70;99.90;;;;;;5044550;28;20044;-87
2024/01/12 06:03:37;;;;;;;55.73;24.13;;;-4.70;99.90;;;;;;5052571;28;20040;-86
2024/01/12 06:06:03;;;;;;;51.10;22.60;;;-4.80;99.90;;;;;;5058753;28;20029;-83
2024/01/12 06:08:29;;;;;;;56.47;23.40;;;-4.80;99.90;;;;;;5043215;28;20025;-83
2024/01/12 06:10:54;;;;;;;54.97;23.33;;;-4.90;99.90;;;;;;5043557;28;20055;-84
2024/01/12 06:13:20;;;;;;;59.97;25.60;;;-4.90;99.90;;;;;;5045515;28;20029;-84
2024/01/12 06:15:47;;;;;;;54.87;23.23;;;-4.90;99.90;;;;;;5040804;28;20179;-83
2024/01/12 06:18:12;;;;;;;53.80;21.93;;;-4.90;99.90;;;;;;5044337;28;21326;-82
2024/01/12 06:20:38;;;;;;;58.87;24.43;;;-5.00;99.90;;;;;;5042358;28;20033;-83
2024/01/12 06:23:05;;;;;;;60.87;23.90;;;-5.00;99.90;;;;;;5041773;28;20047;-84
2024/01/12 06:25:36;;;;;;;62.00;24.03;;;-5.00;99.90;;;;;;5043226;28;20111;-84
2024/01/12 06:28:05;;;;;;;56.93;24.73;;;-5.10;99.90;;;;;;5043789;28;20120;-84
2024/01/12 06:30:31;;;;;;;56.07;23.03;;;-5.10;99.90;;;;;;5040957;28;20028;-85
2024/01/12 06:32:57;;;;;;;54.10;24.53;;;-5.10;99.90;;;;;;5041517;28;20040;-85
2024/01/12 06:35:23;;;;;;;60.90;24.60;;;-5.20;99.90;;;;;;5040451;28;20121;-83
2024/01/12 06:37:48;;;;;;;61.53;23.33;;;-5.20;99.90;;;;;;5041520;28;20025;-85
2024/01/12 06:40:14;;;;;;;58.23;24.10;;;-5.20;99.90;;;;;;5041297;28;20025;-85
2024/01/12 06:42:41;;;;;;;57.37;23.23;;;-5.30;99.90;;;;;;5042154;28;20024;-84
2024/01/12 06:45:08;;;;;;;61.07;23.33;;;-5.30;99.90;;;;;;5040507;28;20037;-84
2024/01/12 06:47:34;;;;;;;58.90;24.70;;;-5.30;99.90;;;;;;5039859;28;20037;-84
2024/01/12 06:50:00;;;;;;;60.53;25.93;;;-5.30;99.90;;;;;;5040585;28;20043;-84
2024/01/12 06:52:26;;;;;;;57.10;25.07;;;-5.40;99.90;;;;;;5042134;28;20035;-86
2024/01/12 06:54:52;;;;;;;58.00;23.93;;;-5.40;99.90;;;;;;5040683;28;20032;-84
2024/01/12 06:57:17;;;;;;;61.73;25.53;;;-5.40;99.90;;;;;;5039595;28;20283;-87
2024/01/12 06:59:43;;;;;;;64.47;26.17;;;-5.50;99.90;;;;;;5039923;28;20021;-83
2024/01/12 07:02:09;;;;;;;66.53;27.93;;;-5.50;99.90;;;;;;5040469;28;20032;-84
2024/01/12 07:04:35;;;;;;;58.90;26.33;;;-5.50;99.90;;;;;;5039851;28;20098;-85
2024/01/12 07:07:01;;;;;;;61.37;27.07;;;-5.50;99.90;;;;;;5041689;28;20677;-83
2024/01/12 07:09:27;;;;;;;59.13;26.03;;;-5.60;99.90;;;;;;5040576;28;20033;-84
2024/01/12 07:11:53;;;;;;;60.07;26.00;;;-5.60;99.90;;;;;;5041519;28;20033;-83
2024/01/12 07:14:19;;;;;;;56.30;25.20;;;-5.60;99.90;;;;;;5041409;28;20021;-83
2024/01/12 07:16:45;;;;;;;59.00;24.80;;;-5.60;99.90;;;;;;5039151;28;20029;-85
2024/01/12 07:19:11;;;;;;;56.37;23.97;;;-5.60;99.90;;;;;;5040530;28;20058;-85
2024/01/12 07:21:37;;;;;;;59.97;25.80;;;-5.60;99.90;;;;;;5039852;28;20037;-84
2024/01/12 07:24:03;;;;;;;50.17;21.73;;;-5.60;99.90;;;;;;5039526;28;20506;-82
2024/01/12 07:26:28;;;;;;;54.03;24.13;;;-5.60;99.90;;;;;;5038371;28;20040;-81
2024/01/12 07:28:54;;;;;;;59.03;24.50;;;-5.60;99.90;;;;;;5038785;28;20032;-82
2024/01/12 07:31:20;;;;;;;54.10;21.70;;;-5.70;99.90;;;;;;5041006;28;20021;-86
2024/01/12 07:33:45;;;;;;;54.70;23.87;;;-5.70;99.90;;;;;;5039158;28;20087;-78
2024/01/12 07:36:11;;;;;;;55.07;24.33;;;-5.70;99.90;;;;;;5036327;28;20539;-78
2024/01/12 07:38:37;;;;;;;56.83;23.87;;;-5.70;99.90;;;;;;5037674;28;20036;-78
2024/01/12 07:41:02;;;;;;;53.43;24.00;;;-5.60;99.90;;;;;;5038957;28;20063;-78
2024/01/12 07:43:30;;;;;;;54.07;23.37;;;-5.60;99.90;;;;;;5037380;28;20029;-78
2024/01/12 07:45:56;;;;;;;63.00;26.37;;;-5.60;99.90;;;;;;5038463;28;20053;-79
2024/01/12 07:48:22;;;;;;;67.50;29.13;;;-5.60;99.90;;;;;;5042026;28;20208;-82
2024/01/12 07:50:47;;;;;;;74.47;30.13;;;-5.60;99.90;;;;;;5045400;28;20040;-83
2024/01/12 07:53:14;;;;;;;68.13;27.90;;;-5.60;99.90;;;;;;5043852;28;20059;-83
2024/01/12 07:55:39;;;;;;;69.30;28.33;;;-5.60;99.90;;;;;;5044842;28;20092;-83
2024/01/12 07:58:05;;;;;;;74.67;30.60;;;-5.60;99.90;;;;;;5045959;28;20020;-82
2024/01/12 08:00:30;;;;;;;68.70;27.43;;;-5.60;99.90;;;;;;5054506;28;20041;-84
2024/01/12 08:02:56;;;;;;;69.90;27.77;;;-5.50;99.90;;;;;;5049798;28;20036;-82
2024/01/12 08:05:22;;;;;;;62.77;26.77;;;-5.50;99.90;;;;;;5044717;28;20056;-85
2024/01/12 08:07:49;;;;;;;70.23;28.67;;;-5.50;99.90;;;;;;5045545;28;20174;-82
2024/01/12 08:10:15;;;;;;;61.33;28.07;;;-5.50;99.90;;;;;;5045816;28;20092;-82
2024/01/12 08:12:41;;;;;;;67.40;26.50;;;-5.40;99.90;;;;;;5044296;28;20036;-82
2024/01/12 08:15:10;;;;;;;65.70;28.83;;;-5.40;99.90;;;;;;5043667;28;20410;-82
2024/01/12 08:17:39;;;;;;;61.63;26.90;;;-5.30;99.90;;;;;;5045343;28;20039;-82
2024/01/12 08:20:05;;;;;;;68.73;28.33;;;-5.30;99.90;;;;;;5043030;28;20110;-83
2024/01/12 08:22:32;;;;;;;65.03;27.10;;;-5.20;99.90;;;;;;5042121;28;20037;-82
2024/01/12 08:24:58;;;;;;;66.13;28.43;;;-5.20;99.90;;;;;;5041870;28;20949;-82
2024/01/12 08:27:23;;;;;;;69.40;29.07;;;-5.10;99.90;;;;;;5040905;28;20037;-82
2024/01/12 08:29:49;;;;;;;63.07;27.80;;;-5.10;99.90;;;;;;5043399;28;20078;-82
2024/01/12 08:32:15;;;;;;;61.17;26.77;;;-5.00;99.90;;;;;;5041535;28;20025;-82
2024/01/12 08:34:40;;;;;;;67.07;28.93;;;-4.90;99.90;;;;;;5045219;28;20574;-84
2024/01/12 08:37:06;;;;;;;66.30;27.40;;;-4.90;99.90;;;;;;5042109;28;20048;-83
2024/01/12 08:39:32;;;;;;;67.50;29.00;;;-4.90;99.90;;;;;;5044902;28;20036;-82
2024/01/12 08:41:58;;;;;;;66.33;27.77;;;-4.80;99.90;;;;;;5044621;28;20033;-82
2024/01/12 08:44:24;;;;;;;69.97;29.50;;;-4.80;99.90;;;;;;5044073;28;20052;-82
2024/01/12 08:46:52;;;;;;;63.30;28.93;;;-4.70;99.90;;;;;;5041843;28;20029;-81
2024/01/12 08:49:18;;;;;;;66.07;27.83;;;-4.70;99.90;;;;;;5043779;28;20492;-83
2024/01/12 08:51:44;;;;;;;62.40;26.93;;;-4.70;99.90;;;;;;5038415;28;20025;-77
2024/01/12 08:54:09;;;;;;;65.30;27.80;;;-4.60;99.90;;;;;;5038563;28;20756;-79
2024/01/12 08:56:35;;;;;;;64.37;28.10;;;-4.60;99.90;;;;;;5038609;28;20767;-79
2024/01/12 08:59:00;;;;;;;57.80;26.83;;;-4.50;99.90;;;;;;5038379;28;20029;-79
2024/01/12 09:01:26;;;;;;;62.53;26.83;;;-4.50;99.90;;;;;;5037856;28;20092;-79
2024/01/12 09:03:51;;;;;;;64.40;28.03;;;-4.40;99.90;;;;;;5038804;28;20021;-79
2024/01/12 09:06:17;;;;;;;64.20;26.80;;;-4.40;99.90;;;;;;5038414;28;20036;-79
2024/01/12 09:08:42;;;;;;;62.70;27.67;;;-4.30;99.90;;;;;;5037321;28;20037;-80
2024/01/12 09:11:08;;;;;;;63.87;27.10;;;-4.20;99.90;;;;;;5039366;28;20029;-79
2024/01/12 09:13:34;;;;;;;71.83;31.90;;;-4.10;99.90;;;;;;5038418;28;20136;-80
2024/01/12 09:15:59;;;;;;;71.97;31.07;;;-4.00;99.90;;;;;;5039783;28;20017;-79
2024/01/12 09:18:25;;;;;;;74.53;30.97;;;-3.90;99.90;;;;;;5037877;28;20524;-79
2024/01/12 09:20:50;;;;;;;73.40;30.30;;;-3.90;99.90;;;;;;5039713;28;20551;-80
2024/01/12 09:23:16;;;;;;;73.53;32.20;;;-3.90;99.90;;;;;;5040032;28;20029;-79
2024/01/12 09:25:41;;;;;;;74.13;30.80;;;-3.80;99.90;;;;;;5040958;28;20733;-80
2024/01/12 09:28:07;;;;;;;70.17;31.00;;;-3.80;99.90;;;;;;5043046;28;20116;-79
2024/01/12 09:30:34;;;;;;;75.33;31.77;;;-3.80;99.90;;;;;;5043009;28;20036;-80
2024/01/12 09:33:00;;;;;;;78.97;33.77;;;-3.80;99.90;;;;;;5042990;28;20114;-79
2024/01/12 09:35:25;;;;;;;67.83;31.77;;;-3.70;99.90;;;;;;5042742;28;20403;-79
2024/01/12 09:37:51;;;;;;;73.23;31.53;;;-3.70;99.90;;;;;;5044063;28;20028;-80
2024/01/12 09:40:17;;;;;;;76.67;33.57;;;-3.70;99.90;;;;;;5042643;28;20029;-79
2024/01/12 09:42:45;;;;;;;77.03;34.30;;;-3.70;99.90;;;;;;5042914;28;20021;-80
2024/01/12 09:45:16;;;;;;;77.40;34.50;;;-3.80;99.90;;;;;;5042124;28;20668;-79
2024/01/12 09:47:42;;;;;;;78.73;33.93;;;-3.70;99.90;;;;;;5043108;28;20036;-80
2024/01/12 09:50:10;;;;;;;77.47;33.20;;;-3.70;99.90;;;;;;5042106;28;20063;-79
2024/01/12 09:52:36;;;;;;;74.00;34.40;;;-3.60;99.90;;;;;;5043848;28;20037;-80
2024/01/12 09:55:02;;;;;;;81.57;34.20;;;-3.60;99.90;;;;;;5055468;28;20029;-79
2024/01/12 09:57:28;;;;;;;81.80;35.57;;;-3.60;99.90;;;;;;5048604;28;20040;-80
2024/01/12 09:59:54;;;;;;;75.87;33.53;;;-3.50;99.90;;;;;;5045169;28;20033;-80
2024/01/12 10:02:21;;;;;;;78.37;36.10;;;-3.40;99.90;;;;;;5043806;28;20029;-80
2024/01/12 10:04:46;;;;;;;78.10;34.97;;;-3.30;99.90;;;;;;5044790;28;20172;-79
2024/01/12 10:07:12;;;;;;;81.50;36.50;;;-3.30;99.90;;;;;;5041687;28;20169;-79
2024/01/12 10:09:37;;;;;;;75.07;33.17;;;-3.30;99.90;;;;;;5045703;28;20127;-80
2024/01/12 10:12:03;;;;;;;77.03;33.80;;;-3.20;99.90;;;;;;5042570;28;20029;-80
2024/01/12 10:14:29;;;;;;;76.77;33.77;;;-3.20;99.90;;;;;;5041847;28;20036;-80
2024/01/12 10:16:55;;;;;;;76.57;35.77;;;-3.20;99.90;;;;;;5041254;28;20029;-80
2024/01/12 10:19:22;;;;;;;83.60;35.17;;;-3.10;99.90;;;;;;5041742;28;20031;-80
2024/01/12 10:21:48;;;;;;;79.27;37.50;;;-3.00;99.90;;;;;;5040805;28;20025;-80
2024/01/12 10:24:19;;;;;;;74.03;34.37;;;-3.00;99.90;;;;;;5041675;28;20048;-80
2024/01/12 10:26:49;;;;;;;79.63;35.73;;;-2.90;99.90;;;;;;5040531;28;20033;-85
2024/01/12 10:29:15;;;;;;;81.97;36.47;;;-2.70;99.90;;;;;;5043067;28;20049;-84
2024/01/12 10:31:43;;;;;;;79.43;35.57;;;-2.60;99.90;;;;;;5045430;28;20025;-83
2024/01/12 10:34:11;;;;;;;75.10;37.63;;;-2.50;99.90;;;;;;5044346;28;20029;-83
2024/01/12 10:36:38;;;;;;;90.33;40.17;;;-2.50;99.90;;;;;;5043027;28;20029;-83
2024/01/12 10:39:07;;;;;;;87.57;40.27;;;-2.40;99.90;;;;;;5041349;28;20174;-85
2024/01/12 10:41:34;;;;;;;78.60;37.10;;;-2.40;99.90;;;;;;5042578;28;20029;-84
2024/01/12 10:44:03;;;;;;;80.30;37.47;;;-2.50;99.90;;;;;;5042991;28;20028;-84
2024/01/12 10:46:40;;;;;;;79.70;37.80;;;-2.40;99.90;;;;;;5044272;28;20029;-84
2024/01/12 10:49:20;;;;;;;85.67;37.57;;;-2.40;99.90;;;;;;5043855;28;20041;-87
2024/01/12 10:52:08;;;;;;;79.23;37.90;;;-2.40;99.90;;;;;;5044320;28;20048;-84
2024/01/12 10:54:37;;;;;;;77.77;35.90;;;-2.30;99.90;;;;;;5044459;28;20055;-85
2024/01/12 10:57:04;;;;;;;82.43;37.57;;;-2.30;99.90;;;;;;5044788;28;20017;-84
2024/01/12 10:59:31;;;;;;;84.87;38.60;;;-2.30;99.90;;;;;;5042193;28;20033;-84
2024/01/12 11:01:58;;;;;;;86.07;38.30;;;-2.40;99.90;;;;;;5041918;28;20099;-80
2024/01/12 11:04:26;;;;;;;81.43;37.83;;;-2.30;99.90;;;;;;5040438;28;21356;-80
2024/01/12 11:06:56;;;;;;;82.00;36.17;;;-2.40;99.90;;;;;;5039817;28;20178;-80
2024/01/12 11:09:23;;;;;;;81.77;38.00;;;-2.40;99.90;;;;;;5040228;28;20074;-80
2024/01/12 11:11:56;;;;;;;83.70;37.90;;;-2.50;99.90;;;;;;5041521;28;20823;-80
2024/01/12 11:14:22;;;;;;;73.80;37.17;;;-2.50;99.90;;;;;;5039642;28;20048;-80
2024/01/12 11:16:50;;;;;;;76.50;36.67;;;-2.50;99.90;;;;;;5040213;28;20036;-80
2024/01/12 11:19:18;;;;;;;79.83;38.23;;;-2.50;99.90;;;;;;5040525;28;21464;-80
2024/01/12 11:21:44;;;;;;;82.10;38.47;;;-2.40;99.90;;;;;;5039020;28;20032;-80
2024/01/12 11:24:11;;;;;;;86.60;37.90;;;-2.40;99.90;;;;;;5038962;28;20076;-80
2024/01/12 11:26:37;;;;;;;73.97;34.07;;;-2.40;99.90;;;;;;5038587;28;20051;-80
2024/01/12 11:29:03;;;;;;;89.73;40.23;;;-2.50;99.90;;;;;;5041677;28;20029;-80
2024/01/12 11:31:29;;;;;;;91.40;40.40;;;-2.50;99.90;;;;;;5043536;28;20029;-87
2024/01/12 11:34:00;;;;;;;83.30;39.53;;;-2.50;99.90;;;;;;5040084;28;20029;-80
2024/01/12 11:36:27;;;;;;;81.50;38.83;;;-2.40;99.90;;;;;;5038730;28;20122;-79
2024/01/12 11:38:55;;;;;;;85.80;38.27;;;-2.40;99.90;;;;;;5036053;28;20032;-79
2024/01/12 11:41:27;;;;;;;85.00;38.43;;;-2.40;99.90;;;;;;5037129;28;20355;-81
2024/01/12 11:43:52;;;;;;;89.40;41.67;;;-2.40;99.90;;;;;;5039760;28;20033;-80
2024/01/12 11:46:18;;;;;;;84.73;38.93;;;-2.40;99.90;;;;;;5039695;28;20033;-80
2024/01/12 11:48:44;;;;;;;89.73;40.47;;;-2.30;99.90;;;;;;5036234;28;20033;-80
2024/01/12 11:51:10;;;;;;;83.80;38.83;;;-2.40;99.90;;;;;;5037025;28;20746;-81
2024/01/12 11:53:38;;;;;;;80.70;39.40;;;-2.40;99.90;;;;;;5038256;28;20036;-80
2024/01/12 11:56:04;;;;;;;89.53;41.17;;;-2.40;99.90;;;;;;5036128;28;20132;-79
2024/01/12 11:58:31;;;;;;;93.30;41.13;;;-2.40;99.90;;;;;;5037092;28;20170;-80
2024/01/12 12:00:56;;;;;;;130.30;53.27;;;-2.40;99.90;;;;;;5038960;28;20468;-79
2024/01/12 12:03:26;;;;;;;113.23;49.27;;;-2.30;99.90;;;;;;5038157;28;20037;-81
2024/01/12 12:05:51;;;;;;;98.73;45.43;;;-2.30;99.90;;;;;;5037690;28;20498;-79
2024/01/12 12:08:17;;;;;;;87.60;40.47;;;-2.20;99.90;;;;;;5037674;28;20025;-80
2024/01/12 12:10:42;;;;;;;93.10;42.57;;;-2.10;99.90;;;;;;5041027;28;20043;-80
2024/01/12 12:13:10;;;;;;;90.00;40.07;;;-2.10;99.90;;;;;;5039978;28;20025;-79
2024/01/12 12:15:38;;;;;;;85.93;39.27;;;-2.10;99.90;;;;;;5040451;28;20096;-81
2024/01/12 12:18:05;;;;;;;84.13;39.70;;;-2.10;99.90;;;;;;5042157;28;20127;-81
2024/01/12 12:20:31;;;;;;;87.43;37.73;;;-2.10;99.90;;;;;;5035948;28;20041;-82